ADDS METAR Data INFO
IDs: Format: Raw Decoded Include TAF

Data at: 1547 UTC 21 Jul 2018

METAR for:GCLA (La Palma Arpt, --, CR)
Text:GCLA 211530Z 03019KT 360V060 9999 FEW035 24/17 Q1019
Temperature: 24.0°C ( 75°F)
Dewpoint: 17.0°C ( 63°F) [RH = 65%]
Pressure (altimeter):30.09 inches Hg (1019.0 mb)
Winds:from the NNE (30 degrees) at 22 MPH (19 knots; 9.8 m/s)
Visibility:6 or more sm (10+ km)
Ceiling:at least 12,000 feet AGL
Clouds: few clouds at 3500 feet AGL